createdAt,value
2023-05-14T00:01:35.031Z,99930.50
2023-05-14T00:04:36.632Z,99931.27
2023-05-14T00:07:38.405Z,99931.16
2023-05-14T00:10:40.042Z,99930.38
2023-05-14T00:13:41.686Z,99933.53
2023-05-14T00:16:43.229Z,99934.32
2023-05-14T00:19:44.906Z,99935.26
2023-05-14T00:22:46.479Z,99936.05
2023-05-14T00:25:48.450Z,99936.96
2023-05-14T00:28:50.092Z,99936.52
2023-05-14T00:31:51.628Z,99936.93
2023-05-14T00:34:53.374Z,99938.34
2023-05-14T00:37:54.923Z,99938.59
2023-05-14T00:40:56.422Z,99938.13
2023-05-14T00:43:58.138Z,99936.42
2023-05-14T00:47:00.298Z,99937.73
2023-05-14T00:50:03.788Z,99938.67
2023-05-14T00:53:05.477Z,99939.86
2023-05-14T00:56:07.632Z,99939.86
2023-05-14T00:59:09.178Z,99941.35
2023-05-14T01:02:11.076Z,99945.45
2023-05-14T01:05:12.792Z,99944.27
2023-05-14T01:08:20.440Z,99942.40
2023-05-14T01:11:29.895Z,99943.91
2023-05-14T01:14:43.062Z,99940.42
2023-05-14T01:17:59.346Z,99933.16
2023-05-14T01:21:01.827Z,99934.48
2023-05-14T01:24:03.667Z,99938.70
2023-05-14T01:27:18.423Z,99939.33
2023-05-14T01:30:32.788Z,99937.76
2023-05-14T01:33:35.821Z,99932.62
2023-05-14T01:36:39.044Z,99929.88
2023-05-14T01:39:41.295Z,99933.34
2023-05-14T01:42:43.469Z,99926.05
2023-05-14T01:45:46.286Z,99926.63
2023-05-14T01:48:47.772Z,99930.11
2023-05-14T01:51:49.434Z,99927.30
2023-05-14T01:54:51.150Z,99931.03
2023-05-14T01:57:53.626Z,99934.20
2023-05-14T02:00:55.282Z,99933.44
2023-05-14T02:03:56.870Z,99932.81
2023-05-14T02:06:58.452Z,99928.25
2023-05-14T02:10:00.147Z,99930.38
2023-05-14T02:13:01.726Z,99926.89
2023-05-14T02:16:03.662Z,99922.69
2023-05-14T02:19:05.489Z,99920.39
2023-05-14T02:22:07.152Z,99917.39
2023-05-14T02:25:09.640Z,99917.65
2023-05-14T02:28:11.235Z,99916.93
2023-05-14T02:31:12.816Z,99917.16
2023-05-14T02:34:14.492Z,99918.89
2023-05-14T02:37:16.014Z,99914.98
2023-05-14T02:40:17.820Z,99909.64
2023-05-14T02:43:19.409Z,99910.84
2023-05-14T02:46:20.985Z,99910.13
2023-05-14T02:49:22.636Z,99903.42
2023-05-14T02:52:24.377Z,99891.77
2023-05-14T02:55:26.046Z,99885.60
2023-05-14T02:58:28.430Z,99883.39
2023-05-14T03:01:30.268Z,99882.53
2023-05-14T03:04:32.332Z,99884.08
2023-05-14T03:07:33.877Z,99881.52
2023-05-14T03:10:35.402Z,99882.36
2023-05-14T03:13:36.997Z,99878.40
2023-05-14T03:16:38.553Z,99881.80
2023-05-14T03:19:43.186Z,99891.08
2023-05-14T03:22:44.894Z,99887.58
2023-05-14T03:25:46.292Z,99880.17
2023-05-14T03:28:48.542Z,99875.10
2023-05-14T03:31:50.260Z,99873.39
2023-05-14T03:34:51.957Z,99868.73
2023-05-14T03:37:53.508Z,99864.70
2023-05-14T03:40:55.243Z,99867.20
2023-05-14T03:43:57.337Z,99866.98
2023-05-14T03:46:58.976Z,99857.10
2023-05-14T03:50:00.477Z,99865.53
2023-05-14T03:53:02.349Z,99876.80
2023-05-14T03:56:04.327Z,99882.25
2023-05-14T03:59:06.097Z,99879.67
2023-05-14T04:02:10.659Z,99878.30
2023-05-14T04:05:12.197Z,99874.61
2023-05-14T04:08:13.969Z,99878.97
2023-05-14T04:11:15.635Z,99877.86
2023-05-14T04:14:17.291Z,99873.69
2023-05-14T04:17:19.151Z,99869.77
2023-05-14T04:20:21.454Z,99870.11
2023-05-14T04:23:23.152Z,99868.70
2023-05-14T04:26:24.775Z,99867.68
2023-05-14T04:29:26.348Z,99866.03
2023-05-14T04:32:27.874Z,99867.53
2023-05-14T04:35:29.716Z,99866.75
2023-05-14T04:38:31.392Z,99862.13
2023-05-14T04:41:35.978Z,99859.52
2023-05-14T04:44:37.690Z,99856.05
2023-05-14T04:47:39.695Z,99855.38
2023-05-14T04:50:41.303Z,99854.39
2023-05-14T04:53:42.930Z,99854.04
2023-05-14T04:56:44.532Z,99853.34
2023-05-14T04:59:46.290Z,99855.12
2023-05-14T05:02:48.003Z,99853.84
2023-05-14T05:05:49.645Z,99850.23
2023-05-14T05:08:51.281Z,99851.36
2023-05-14T05:11:52.883Z,99849.85
2023-05-14T05:14:54.569Z,99852.23
2023-05-14T05:17:56.549Z,99850.89
2023-05-14T05:20:58.235Z,99850.34
2023-05-14T05:23:59.774Z,99851.97
2023-05-14T05:27:01.312Z,99851.21
2023-05-14T05:30:02.958Z,99846.77
2023-05-14T05:33:04.681Z,99853.52
2023-05-14T05:36:06.458Z,99848.46
2023-05-14T05:39:08.040Z,99850.10
2023-05-14T05:42:09.814Z,99847.48
2023-05-14T05:45:11.551Z,99842.73
2023-05-14T05:48:13.170Z,99838.82
2023-05-14T05:51:14.962Z,99837.28
2023-05-14T05:54:16.654Z,99837.10
2023-05-14T05:57:18.245Z,99836.91
2023-05-14T06:00:20.402Z,99832.62
2023-05-14T06:03:21.998Z,99830.87
2023-05-14T06:06:23.596Z,99833.33
2023-05-14T06:09:25.217Z,99833.79
2023-05-14T06:12:26.778Z,99830.77
2023-05-14T06:15:28.503Z,99834.45
2023-05-14T06:18:30.043Z,99830.70
2023-05-14T06:21:34.413Z,99832.51
2023-05-14T06:24:36.012Z,99829.20
2023-05-14T06:27:38.323Z,99825.55
2023-05-14T06:30:40.067Z,99822.83
2023-05-14T06:33:41.729Z,99811.39
2023-05-14T06:36:43.345Z,99808.63
2023-05-14T06:39:44.962Z,99810.29
2023-05-14T06:42:46.504Z,99808.83
2023-05-14T06:45:51.870Z,99804.67
2023-05-14T06:48:53.464Z,99805.14
2023-05-14T06:51:55.017Z,99795.85
2023-05-14T06:54:56.656Z,99797.48
2023-05-14T06:57:58.263Z,99789.92
2023-05-14T07:01:00.082Z,99797.41
2023-05-14T07:04:01.792Z,99787.38
2023-05-14T07:07:03.523Z,99795.94
2023-05-14T07:10:06.065Z,99796.25
2023-05-14T07:13:08.169Z,99799.29
2023-05-14T07:16:10.048Z,99799.96
2023-05-14T07:19:11.676Z,99800.36
2023-05-14T07:22:13.254Z,99806.25
2023-05-14T07:25:14.820Z,99810.63
2023-05-14T07:28:16.345Z,99810.48
2023-05-14T07:31:17.912Z,99811.79
2023-05-14T07:34:19.615Z,99811.40
2023-05-14T07:37:23.171Z,99819.02
2023-05-14T07:40:25.745Z,99820.77
2023-05-14T07:43:27.446Z,99811.70
2023-05-14T07:46:29.083Z,99803.31
2023-05-14T07:49:30.863Z,99803.58
2023-05-14T07:52:32.433Z,99793.77
2023-05-14T07:55:34.004Z,99791.87
2023-05-14T07:58:35.639Z,99790.52
2023-05-14T08:01:39.280Z,99777.36
2023-05-14T08:04:41.722Z,99772.02
2023-05-14T08:07:43.302Z,99761.09
2023-05-14T08:10:44.962Z,99761.43
2023-05-14T08:13:46.456Z,99758.46
2023-05-14T08:16:48.018Z,99751.81
2023-05-14T08:19:49.634Z,99754.27
2023-05-14T08:22:51.237Z,99750.39
2023-05-14T08:25:52.753Z,99738.45
2023-05-14T08:28:54.392Z,99735.87
2023-05-14T08:31:56.221Z,99733.50
2023-05-14T08:34:57.735Z,99729.98
2023-05-14T08:37:59.357Z,99735.49
2023-05-14T08:41:00.961Z,99724.96
2023-05-14T08:44:13.247Z,99721.98
2023-05-14T08:47:15.994Z,99721.60
2023-05-14T08:50:19.840Z,99718.73
2023-05-14T08:53:22.685Z,99717.48
2023-05-14T08:56:25.217Z,99718.06
2023-05-14T08:59:26.958Z,99719.58
2023-05-14T09:02:30.556Z,99715.90
2023-05-14T09:05:32.476Z,99715.05
2023-05-14T09:08:34.040Z,99713.81
2023-05-14T09:11:41.696Z,99711.31
2023-05-14T09:14:44.607Z,99704.67
2023-05-14T09:17:46.505Z,99702.07
2023-05-14T09:20:48.193Z,99699.08
2023-05-14T09:23:53.778Z,99690.83
2023-05-14T09:26:58.761Z,99701.27
2023-05-14T09:30:13.666Z,99702.98
2023-05-14T09:33:25.936Z,99696.06
2023-05-14T09:36:27.662Z,99694.04
2023-05-14T09:39:29.715Z,99686.46
2023-05-14T09:42:31.272Z,99680.73
2023-05-14T09:45:33.055Z,99684.14
2023-05-14T09:48:34.769Z,99679.18
2023-05-14T09:51:37.852Z,99679.98
2023-05-14T09:54:40.012Z,99675.58
2023-05-14T09:57:41.640Z,99674.34
2023-05-14T10:00:46.101Z,99661.44
2023-05-14T10:03:48.973Z,99663.96
2023-05-14T10:06:51.337Z,99662.92
2023-05-14T10:09:59.355Z,99665.00
2023-05-14T10:13:04.647Z,99655.69
2023-05-14T10:16:11.896Z,99656.60
2023-05-14T10:19:15.820Z,99654.37
2023-05-14T10:22:19.833Z,99653.52
2023-05-14T10:25:21.637Z,99639.70
2023-05-14T10:28:23.373Z,99632.80
2023-05-14T10:31:53.670Z,99619.02
2023-05-14T10:34:55.368Z,99612.02
2023-05-14T10:37:56.981Z,99604.30
2023-05-14T10:41:04.206Z,99600.38
2023-05-14T10:44:08.787Z,99587.37
2023-05-14T10:47:10.432Z,99576.30
2023-05-14T10:50:14.246Z,99576.98
2023-05-14T10:53:16.110Z,99571.16
2023-05-14T10:56:17.745Z,99567.71
2023-05-14T10:59:19.441Z,99564.80
2023-05-14T11:02:26.402Z,99570.25
2023-05-14T11:05:28.012Z,99556.52
2023-05-14T11:08:30.974Z,99555.33
2023-05-14T11:11:32.524Z,99554.70
2023-05-14T11:14:34.049Z,99548.67
2023-05-14T11:17:36.899Z,99552.04
2023-05-14T11:20:38.566Z,99544.92
2023-05-14T11:23:40.093Z,99541.88
2023-05-14T11:26:41.832Z,99536.85
2023-05-14T11:29:44.992Z,99534.83
2023-05-14T11:32:47.845Z,99533.38
2023-05-14T11:35:49.462Z,99525.26
2023-05-14T11:38:51.105Z,99527.63
2023-05-14T11:41:52.792Z,99523.09
2023-05-14T11:44:54.485Z,99525.52
2023-05-14T11:47:56.134Z,99520.84
2023-05-14T11:50:58.165Z,99517.45
2023-05-14T11:53:59.774Z,99517.20
2023-05-14T11:57:04.408Z,99516.11
2023-05-14T12:00:11.174Z,99511.32
2023-05-14T12:03:12.910Z,99508.22
2023-05-14T12:06:14.750Z,99500.15
2023-05-14T12:09:20.279Z,99508.84
2023-05-14T12:12:22.497Z,99501.11
2023-05-14T12:15:25.046Z,99492.61
2023-05-14T12:18:31.407Z,99490.83
2023-05-14T12:21:34.859Z,99478.95
2023-05-14T12:24:36.663Z,99472.73
2023-05-14T12:27:38.166Z,99460.80
2023-05-14T12:30:39.996Z,99447.83
2023-05-14T12:33:41.559Z,99440.15
2023-05-14T12:36:43.710Z,99440.92
2023-05-14T12:39:45.385Z,99439.33
2023-05-14T12:42:46.895Z,99431.84
2023-05-14T12:45:48.526Z,99432.51
2023-05-14T12:48:53.094Z,99432.95
2023-05-14T12:52:04.535Z,99430.63
2023-05-14T12:55:16.790Z,99428.20
2023-05-14T12:58:18.553Z,99424.52
2023-05-14T13:01:20.204Z,99419.36
2023-05-14T13:04:21.823Z,99418.30
2023-05-14T13:07:23.559Z,99410.86
2023-05-14T13:10:25.095Z,99402.88
2023-05-14T13:13:26.699Z,99412.29
2023-05-14T13:16:28.866Z,99421.73
2023-05-14T13:19:30.676Z,99426.73
2023-05-14T13:22:32.281Z,99421.64
2023-05-14T13:25:33.984Z,99406.39
2023-05-14T13:28:35.671Z,99403.39
2023-05-14T13:31:37.349Z,99398.67
2023-05-14T13:34:38.986Z,99399.25
2023-05-14T13:37:40.680Z,99395.86
2023-05-14T13:40:42.217Z,99393.85
2023-05-14T13:43:43.762Z,99384.41
2023-05-14T13:46:45.366Z,99396.80
2023-05-14T13:49:47.140Z,99394.42
2023-05-14T13:52:48.801Z,99386.45
2023-05-14T13:55:50.909Z,99379.26
2023-05-14T13:58:52.599Z,99381.00
2023-05-14T14:01:54.217Z,99379.19
2023-05-14T14:04:56.066Z,99371.42
2023-05-14T14:08:01.042Z,99369.80
2023-05-14T14:11:14.516Z,99364.86
2023-05-14T14:14:16.614Z,99358.23
2023-05-14T14:17:18.066Z,99351.98
2023-05-14T14:20:19.731Z,99336.80
2023-05-14T14:23:21.351Z,99334.06
2023-05-14T14:26:22.943Z,99329.52
2023-05-14T14:29:24.842Z,99327.23
2023-05-14T14:32:26.610Z,99333.42
2023-05-14T14:35:28.136Z,99328.33
2023-05-14T14:38:29.725Z,99327.18
2023-05-14T14:41:31.287Z,99320.27
2023-05-14T14:44:32.960Z,99318.05
2023-05-14T14:47:34.620Z,99308.40
2023-05-14T14:50:36.256Z,99303.53
2023-05-14T14:53:37.798Z,99299.33
2023-05-14T14:56:39.413Z,99287.05
2023-05-14T14:59:41.083Z,99283.25
2023-05-14T15:02:43.836Z,99283.84
2023-05-14T15:05:45.630Z,99275.37
2023-05-14T15:08:47.160Z,99268.59
2023-05-14T15:11:48.760Z,99268.00
2023-05-14T15:14:50.481Z,99263.86
2023-05-14T15:17:52.188Z,99258.68
2023-05-14T15:20:53.900Z,99263.54
2023-05-14T15:23:55.769Z,99259.48
2023-05-14T15:26:57.364Z,99253.54
2023-05-14T15:29:58.903Z,99255.34
2023-05-14T15:33:00.701Z,99255.55
2023-05-14T15:36:02.252Z,99253.64
2023-05-14T15:39:03.922Z,99250.20
2023-05-14T15:42:05.754Z,99244.06
2023-05-14T15:45:08.218Z,99241.80
2023-05-14T15:48:09.833Z,99241.85
2023-05-14T15:51:11.493Z,99241.52
2023-05-14T15:54:13.169Z,99237.96
2023-05-14T15:57:14.841Z,99235.29
2023-05-14T16:00:16.833Z,99233.68
2023-05-14T16:03:18.618Z,99227.47
2023-05-14T16:06:20.215Z,99221.02
2023-05-14T16:09:21.769Z,99214.05
2023-05-14T16:12:23.457Z,99208.29
2023-05-14T16:15:25.145Z,99202.48
2023-05-14T16:18:26.847Z,99193.13
2023-05-14T16:21:28.529Z,99187.77
2023-05-14T16:24:30.096Z,99184.03
2023-05-14T16:27:31.908Z,99183.73
2023-05-14T16:30:33.641Z,99187.70
2023-05-14T16:33:35.233Z,99189.56
2023-05-14T16:36:36.818Z,99187.82
2023-05-14T16:39:38.357Z,99183.55
2023-05-14T16:42:39.971Z,99180.61
2023-05-14T16:45:41.611Z,99176.59
2023-05-14T16:48:45.138Z,99174.40
2023-05-14T16:51:46.991Z,99168.96
2023-05-14T16:54:48.644Z,99164.46
2023-05-14T16:57:50.203Z,99168.36
2023-05-14T17:00:51.882Z,99166.91
2023-05-14T17:03:53.866Z,99162.95
2023-05-14T17:06:56.068Z,99163.20
2023-05-14T17:09:58.155Z,99165.60
2023-05-14T17:13:00.175Z,99166.93
2023-05-14T17:16:21.844Z,99162.25
2023-05-14T17:19:32.487Z,99158.04
2023-05-14T17:22:34.478Z,99152.59
2023-05-14T17:25:36.095Z,99147.50
2023-05-14T17:28:37.816Z,99140.61
2023-05-14T17:31:39.488Z,99134.34
2023-05-14T17:34:41.128Z,99134.67
2023-05-14T17:37:42.826Z,99126.24
2023-05-14T17:40:44.458Z,99125.52
2023-05-14T17:43:46.117Z,99126.36
2023-05-14T17:46:47.912Z,99122.98
2023-05-14T17:49:49.502Z,99125.33
2023-05-14T17:52:51.052Z,99122.67
2023-05-14T17:55:52.647Z,99132.67
2023-05-14T17:58:54.245Z,99139.91
2023-05-14T18:01:55.829Z,99150.05
2023-05-14T18:04:57.522Z,99169.92
2023-05-14T18:07:59.819Z,99173.21
2023-05-14T18:11:01.476Z,99156.73
2023-05-14T18:14:03.613Z,99155.52
2023-05-14T18:17:05.500Z,99158.73
2023-05-14T18:20:07.833Z,99163.19
2023-05-14T18:23:09.575Z,99154.84
2023-05-14T18:26:14.191Z,99139.03
2023-05-14T18:29:18.328Z,99131.19
2023-05-14T18:32:19.981Z,99139.00
2023-05-14T18:35:21.559Z,99146.05
2023-05-14T18:38:23.567Z,99144.98
2023-05-14T18:41:25.237Z,99144.58
2023-05-14T18:44:26.861Z,99143.73
2023-05-14T18:47:28.559Z,99144.95
2023-05-14T18:50:30.178Z,99144.27
2023-05-14T18:53:31.862Z,99142.96
2023-05-14T18:56:33.513Z,99138.98
2023-05-14T18:59:35.299Z,99141.20
2023-05-14T19:02:37.053Z,99136.90
2023-05-14T19:05:38.826Z,99137.57
2023-05-14T19:08:40.534Z,99146.13
2023-05-14T19:11:42.096Z,99151.92
2023-05-14T19:14:43.730Z,99160.36
2023-05-14T19:17:45.395Z,99158.87
2023-05-14T19:20:47.044Z,99163.84
2023-05-14T19:23:48.638Z,99172.34
2023-05-14T19:26:50.363Z,99178.79
2023-05-14T19:29:52.010Z,99182.58
2023-05-14T19:32:53.693Z,99191.61
2023-05-14T19:35:55.962Z,99183.98
2023-05-14T19:38:58.087Z,99182.85
2023-05-14T19:41:59.612Z,99184.96
2023-05-14T19:45:01.275Z,99188.27
2023-05-14T19:48:03.089Z,99187.73
2023-05-14T19:51:04.862Z,99186.85
2023-05-14T19:54:06.697Z,99186.99
2023-05-14T19:57:09.264Z,99189.02
2023-05-14T20:00:11.526Z,99192.14
2023-05-14T20:03:13.408Z,99197.64
2023-05-14T20:06:15.189Z,99200.05
2023-05-14T20:09:16.823Z,99198.37
2023-05-14T20:12:18.565Z,99190.80
2023-05-14T20:15:20.112Z,99184.84
2023-05-14T20:18:21.697Z,99185.34
2023-05-14T20:21:23.232Z,99184.24
2023-05-14T20:24:24.850Z,99181.86
2023-05-14T20:27:26.605Z,99176.16
2023-05-14T20:30:28.453Z,99173.46
2023-05-14T20:33:30.515Z,99162.54
2023-05-14T20:36:32.016Z,99149.05
2023-05-14T20:39:33.718Z,99141.88
2023-05-14T20:42:35.486Z,99135.94
2023-05-14T20:45:37.225Z,99132.61
2023-05-14T20:48:39.084Z,99129.10
2023-05-14T20:51:40.716Z,99119.52
2023-05-14T20:54:42.866Z,99105.30
2023-05-14T20:57:44.460Z,99097.13
2023-05-14T21:00:46.038Z,99095.33
2023-05-14T21:03:47.895Z,99092.14
2023-05-14T21:06:49.789Z,99087.45
2023-05-14T21:09:51.334Z,99087.67
2023-05-14T21:12:52.994Z,99085.42
2023-05-14T21:15:54.664Z,99073.61
2023-05-14T21:18:56.337Z,99063.05
2023-05-14T21:21:57.868Z,99052.30
2023-05-14T21:24:59.401Z,99044.91
2023-05-14T21:28:00.870Z,99032.06
2023-05-14T21:31:02.579Z,99022.70
2023-05-14T21:34:04.209Z,99020.53
2023-05-14T21:37:05.804Z,99014.27
2023-05-14T21:40:08.470Z,99007.45
2023-05-14T21:43:10.165Z,99007.34
2023-05-14T21:46:11.753Z,99013.73
2023-05-14T21:49:13.391Z,99014.20
2023-05-14T21:52:14.994Z,99011.77
2023-05-14T21:55:16.612Z,99010.13
2023-05-14T21:58:18.261Z,99009.05
2023-05-14T22:01:19.911Z,99009.45
2023-05-14T22:04:21.800Z,98991.40
2023-05-14T22:07:23.449Z,98983.29
2023-05-14T22:10:25.244Z,98986.19
2023-05-14T22:13:26.889Z,98987.30
2023-05-14T22:16:28.530Z,98992.94
2023-05-14T22:19:30.151Z,98988.00
2023-05-14T22:22:31.746Z,98981.79
2023-05-14T22:25:33.360Z,98976.64
2023-05-14T22:28:34.992Z,98978.00
2023-05-14T22:31:36.592Z,98971.23
2023-05-14T22:34:38.254Z,98950.99
2023-05-14T22:37:42.874Z,98937.14
2023-05-14T22:40:44.439Z,98924.90
2023-05-14T22:43:46.056Z,98922.04
2023-05-14T22:46:47.639Z,98921.21
2023-05-14T22:49:49.221Z,98923.36
2023-05-14T22:52:50.764Z,98935.11
2023-05-14T22:55:52.488Z,98939.84
2023-05-14T22:58:54.150Z,98948.58
2023-05-14T23:01:55.686Z,98951.42
2023-05-14T23:04:57.355Z,98942.27
2023-05-14T23:07:59.226Z,98937.80
2023-05-14T23:11:00.921Z,98937.73
2023-05-14T23:14:02.637Z,98934.58
2023-05-14T23:17:04.400Z,98937.11
2023-05-14T23:20:06.866Z,98929.13
2023-05-14T23:23:08.549Z,98934.94
2023-05-14T23:26:10.186Z,98935.61
2023-05-14T23:29:11.777Z,98933.14
2023-05-14T23:32:13.392Z,98929.42
2023-05-14T23:35:14.981Z,98926.30
2023-05-14T23:38:16.784Z,98914.58
2023-05-14T23:41:18.323Z,98906.20
2023-05-14T23:44:19.877Z,98897.85
2023-05-14T23:47:21.570Z,98888.95
2023-05-14T23:50:23.138Z,98885.24
2023-05-14T23:53:24.762Z,98880.16
2023-05-14T23:56:26.757Z,98877.63
2023-05-14T23:59:28.407Z,98878.71
